METAR Data

Data at: 1741 UTC 21 Nov 2018

METAR for:KPYM (Plymouth Muni, MA, US)
Text:KPYM 211652Z AUTO 21013G21KT 10SM OVC100 04/M03 A2992 RMK AO2 SLP135 T00441028
Temperature: 4.4°C ( 40°F)
Dewpoint: -2.8°C ( 27°F) [RH = 59%]
Pressure (altimeter):29.92 inches Hg (1013.3 mb) [Sea level pressure: 1013.5 mb]
Winds:from the SSW (210 degrees) at 15 MPH (13 knots; 6.7 m/s) gusting to 24 MPH (21 knots; 10.8 m/s)
Visibility:10 or more sm (16+ km)
Ceiling:10000 feet AGL
Clouds: overcast cloud deck at 10000 feet AGL
QC Flag:automated observation with no human augmentation